Will Rogers World Airport
KOKC : now visible

Airfield :











YOU CAN JOIN US ON...

 
LOGIN :

Register | Disclaimer

   EN    FR    IT 

 









Legend :    VFR   Marginal VFR   IFR   Intensive IFR   Very Intensive IFR
Visi :
Ceiling :
>= 8 km
>= 3000ft
5 to 8 km
1000 to 3000 ft
1500m to 5 km
500 to 1000 ft
800 to 1500m
200 to 500 ft
< 800m
< 200 ft
Symbols :   Thunderstorms  Fog  Heavy snow  Heavy precipitations  Wind > 20 kt






- Airport Elevation : 1295 ft
- IATA code : OKC


KOKC - Will Rogers World

CURRENT METAR :
  • 080752Z 17013KT 10SM FEW200 BKN250 08/03 A2995 RMK AO2 SLP141 T00780033

EXPIRED METARs :
  • 080652Z 17011KT 10SM FEW200 BKN250 08/03 A2998 RMK AO2 SLP150 T00780033
  • 080552Z 17011KT 10SM SCT250 07/03 A3002 RMK AO2 SLP166 T00670028 10089 20061 401441022 58015

TAF KOKC
Valid from the 08 at 06:00 until the 09 at 06:00 UTC


080520Z 0806/0906 17012KT P6SM SCT250 WS020/21040KT
FM081200 19014KT P6SM SCT150 BKN250
TEMPO 0812/0816 6SM BR SCT015



MET'MAP, your aeronautical weather chart ! - Copyright ORBIFLY December 2007 - Disclaimer

ORBIFLY MET'MAP TEAM :

Programming & Development : Alexandra Zaïnal
Concept & original design : Baudouin d'Aumeries
Assistance for programming : Marc-Olivier Méhu
Technical & hardware support : Manuel Goepfert

Contact : metmap@orbifly.com




SOURCES & CREDITS :

   NOAA       Earth
Advisory